createdAt,value
2019-02-24T00:01:36.436Z,62.45
2019-02-24T00:04:08.318Z,63.48
2019-02-24T00:06:38.819Z,64.86
2019-02-24T00:09:09.160Z,65.68
2019-02-24T00:11:39.905Z,65.06
2019-02-24T00:14:10.568Z,67.02
2019-02-24T00:16:41.504Z,64.00
2019-02-24T00:19:11.989Z,65.83
2019-02-24T00:21:42.937Z,64.88
2019-02-24T00:24:13.289Z,63.70
2019-02-24T00:26:43.713Z,62.89
2019-02-24T00:29:14.291Z,62.98
2019-02-24T00:31:44.690Z,63.70
2019-02-24T00:34:15.072Z,65.50
2019-02-24T00:36:45.621Z,65.42
2019-02-24T00:39:16.130Z,65.98
2019-02-24T00:41:46.874Z,66.30
2019-02-24T00:44:17.352Z,65.77
2019-02-24T00:46:47.705Z,65.54
2019-02-24T00:49:18.215Z,64.94
2019-02-24T00:51:48.758Z,64.06
2019-02-24T00:54:19.196Z,63.79
2019-02-24T00:56:49.632Z,63.43
2019-02-24T00:59:20.332Z,63.17
2019-02-24T01:01:51.873Z,62.72
2019-02-24T01:04:22.413Z,62.91
2019-02-24T01:06:53.037Z,62.54
2019-02-24T01:09:23.481Z,62.18
2019-02-24T01:11:53.973Z,62.05
2019-02-24T01:14:24.450Z,65.58
2019-02-24T01:16:55.458Z,63.49
2019-02-24T01:19:25.914Z,62.47
2019-02-24T01:21:56.379Z,61.66
2019-02-24T01:24:26.785Z,61.67
2019-02-24T01:26:57.289Z,61.35
2019-02-24T01:29:27.744Z,61.17
2019-02-24T01:31:58.152Z,60.98
2019-02-24T01:34:28.706Z,60.99
2019-02-24T01:36:59.142Z,60.70
2019-02-24T01:39:29.534Z,59.39
2019-02-24T01:41:59.938Z,59.41
2019-02-24T01:44:30.303Z,59.09
2019-02-24T01:47:00.827Z,58.54
2019-02-24T01:49:31.319Z,58.68
2019-02-24T01:52:01.721Z,58.85
2019-02-24T01:54:32.105Z,58.80
2019-02-24T01:57:02.562Z,59.21
2019-02-24T01:59:33.160Z,59.82
2019-02-24T02:02:04.323Z,59.90
2019-02-24T02:04:34.745Z,58.87
2019-02-24T02:07:05.855Z,58.49
2019-02-24T02:09:36.480Z,59.05
2019-02-24T02:12:08.583Z,58.57
2019-02-24T02:14:39.150Z,58.99
2019-02-24T02:17:09.504Z,58.82
2019-02-24T02:19:40.292Z,58.89
2019-02-24T02:22:10.903Z,59.42
2019-02-24T02:24:41.769Z,59.02
2019-02-24T02:27:12.205Z,60.06
2019-02-24T02:29:42.806Z,60.47
2019-02-24T02:32:13.411Z,62.31
2019-02-24T02:34:43.828Z,61.52
2019-02-24T02:37:14.234Z,61.87
2019-02-24T02:39:44.912Z,61.20
2019-02-24T02:42:15.299Z,61.31
2019-02-24T02:44:45.747Z,60.34
2019-02-24T02:47:16.146Z,61.29
2019-02-24T02:49:46.518Z,61.32
2019-02-24T02:52:16.941Z,61.21
2019-02-24T02:54:47.296Z,60.41
2019-02-24T02:57:18.037Z,60.79
2019-02-24T02:59:48.503Z,60.54
2019-02-24T03:02:24.472Z,60.24
2019-02-24T03:04:50.996Z,59.95
2019-02-24T03:07:25.793Z,60.24
2019-02-24T03:09:56.232Z,60.44
2019-02-24T03:12:26.724Z,60.91
2019-02-24T03:14:57.042Z,61.54
2019-02-24T03:17:27.973Z,61.54
2019-02-24T03:19:58.315Z,62.51
2019-02-24T03:22:28.748Z,62.39
2019-02-24T03:24:59.247Z,62.72
2019-02-24T03:27:29.735Z,62.39
2019-02-24T03:30:00.317Z,63.13
2019-02-24T03:32:31.681Z,63.45
2019-02-24T03:35:02.212Z,64.28
2019-02-24T03:37:33.330Z,64.41
2019-02-24T03:40:03.914Z,64.19
2019-02-24T03:42:34.351Z,64.07
2019-02-24T03:45:04.807Z,63.52
2019-02-24T03:47:35.232Z,62.63
2019-02-24T03:50:06.215Z,62.47
2019-02-24T03:52:36.652Z,61.43
2019-02-24T03:55:07.085Z,61.24
2019-02-24T03:57:37.826Z,61.44
2019-02-24T04:00:08.405Z,62.26
2019-02-24T04:02:38.813Z,62.89
2019-02-24T04:05:09.383Z,63.24
2019-02-24T04:07:39.781Z,63.98
2019-02-24T04:10:10.234Z,63.89
2019-02-24T04:12:40.864Z,63.88
2019-02-24T04:15:11.280Z,63.87
2019-02-24T04:17:41.643Z,63.61
2019-02-24T04:20:12.179Z,63.44
2019-02-24T04:22:43.660Z,63.75
2019-02-24T04:25:14.140Z,63.20
2019-02-24T04:27:44.771Z,62.94
2019-02-24T04:30:15.200Z,63.42
2019-02-24T04:32:45.559Z,62.64
2019-02-24T04:35:16.069Z,62.56
2019-02-24T04:37:46.504Z,62.14
2019-02-24T04:40:16.972Z,62.03
2019-02-24T04:42:47.309Z,61.03
2019-02-24T04:45:17.733Z,60.97
2019-02-24T04:47:48.407Z,61.03
2019-02-24T04:50:19.087Z,61.09
2019-02-24T04:52:49.534Z,60.61
2019-02-24T04:55:19.971Z,60.27
2019-02-24T04:57:50.400Z,59.84
2019-02-24T05:00:20.905Z,58.99
2019-02-24T05:02:51.514Z,59.05
2019-02-24T05:05:22.403Z,58.73
2019-02-24T05:07:52.952Z,59.25
2019-02-24T05:10:24.461Z,59.09
2019-02-24T05:12:55.251Z,58.35
2019-02-24T05:15:25.772Z,58.05
2019-02-24T05:17:56.256Z,58.08
2019-02-24T05:20:27.677Z,58.07
2019-02-24T05:22:58.136Z,57.97
2019-02-24T05:25:28.662Z,57.87
2019-02-24T05:27:59.247Z,58.16
2019-02-24T05:30:30.437Z,58.22
2019-02-24T05:33:01.280Z,58.31
2019-02-24T05:35:31.724Z,58.07
2019-02-24T05:38:02.216Z,57.95
2019-02-24T05:40:32.573Z,57.88
2019-02-24T05:43:03.308Z,57.64
2019-02-24T05:45:33.905Z,57.50
2019-02-24T05:48:04.651Z,57.74
2019-02-24T05:50:35.074Z,57.71
2019-02-24T05:53:05.871Z,57.52
2019-02-24T05:55:36.293Z,57.84
2019-02-24T05:58:06.691Z,58.03
2019-02-24T06:00:37.325Z,58.36
2019-02-24T06:03:07.736Z,58.62
2019-02-24T06:05:38.145Z,58.55
2019-02-24T06:08:08.619Z,58.56
2019-02-24T06:10:39.008Z,60.04
2019-02-24T06:13:09.521Z,60.04
2019-02-24T06:15:39.986Z,61.00
2019-02-24T06:18:10.642Z,61.22
2019-02-24T06:20:40.989Z,61.48
2019-02-24T06:23:11.463Z,61.95
2019-02-24T06:25:41.859Z,62.25
2019-02-24T06:28:12.337Z,62.18
2019-02-24T06:30:42.906Z,61.92
2019-02-24T06:33:13.584Z,62.47
2019-02-24T06:35:44.284Z,62.30
2019-02-24T06:38:14.724Z,62.27
2019-02-24T06:40:45.142Z,61.97
2019-02-24T06:43:15.548Z,61.66
2019-02-24T06:45:46.255Z,61.43
2019-02-24T06:48:16.695Z,61.08
2019-02-24T06:51:11.974Z,60.71
2019-02-24T06:53:42.359Z,60.26
2019-02-24T06:56:12.728Z,60.28
2019-02-24T06:58:43.283Z,60.08
2019-02-24T07:01:13.772Z,59.30
2019-02-24T07:03:44.269Z,58.79
2019-02-24T07:06:14.723Z,58.65
2019-02-24T07:08:45.366Z,58.05
2019-02-24T07:11:15.793Z,57.71
2019-02-24T07:13:46.464Z,57.68
2019-02-24T07:16:16.982Z,57.95
2019-02-24T07:18:47.453Z,57.56
2019-02-24T07:21:18.053Z,57.22
2019-02-24T07:23:48.487Z,57.06
2019-02-24T07:26:18.909Z,56.78
2019-02-24T07:28:49.223Z,57.12
2019-02-24T07:31:19.741Z,57.10
2019-02-24T07:33:50.233Z,57.54
2019-02-24T07:36:21.822Z,57.93
2019-02-24T07:38:52.614Z,58.65
2019-02-24T07:41:23.045Z,59.01
2019-02-24T07:43:53.829Z,58.75
2019-02-24T07:46:24.535Z,58.55
2019-02-24T07:48:55.009Z,58.07
2019-02-24T07:51:25.492Z,57.91
2019-02-24T07:53:55.918Z,57.65
2019-02-24T07:56:26.260Z,57.48
2019-02-24T07:58:56.649Z,57.64
2019-02-24T08:01:27.130Z,57.49
2019-02-24T08:03:57.827Z,57.40
2019-02-24T08:06:28.319Z,57.01
2019-02-24T08:08:58.751Z,56.86
2019-02-24T08:11:29.238Z,57.22
2019-02-24T08:14:00.389Z,57.27
2019-02-24T08:16:30.864Z,56.97
2019-02-24T08:19:01.448Z,57.26
2019-02-24T08:21:31.938Z,57.54
2019-02-24T08:24:02.380Z,57.30
2019-02-24T08:26:32.818Z,57.13
2019-02-24T08:29:04.388Z,57.29
2019-02-24T08:31:34.969Z,57.09
2019-02-24T08:34:05.872Z,56.90
2019-02-24T08:36:36.354Z,56.68
2019-02-24T08:39:07.091Z,56.66
2019-02-24T08:41:37.711Z,56.66
2019-02-24T08:44:08.279Z,56.65
2019-02-24T08:46:39.008Z,56.06
2019-02-24T08:49:09.528Z,56.17
2019-02-24T08:51:40.093Z,56.13
2019-02-24T08:54:10.856Z,55.59
2019-02-24T08:56:41.344Z,56.06
2019-02-24T08:59:11.813Z,54.86
2019-02-24T09:01:42.249Z,54.68
2019-02-24T09:04:12.903Z,54.08
2019-02-24T09:06:43.384Z,54.03
2019-02-24T09:09:13.933Z,54.33
2019-02-24T09:11:44.450Z,54.26
2019-02-24T09:14:14.837Z,54.63
2019-02-24T09:16:45.292Z,54.61
2019-02-24T09:19:16.635Z,54.44
2019-02-24T09:21:47.175Z,54.63
2019-02-24T09:24:17.557Z,54.21
2019-02-24T09:26:48.277Z,53.96
2019-02-24T09:29:18.896Z,53.96
2019-02-24T09:31:49.324Z,53.75
2019-02-24T09:34:19.725Z,54.22
2019-02-24T09:36:50.511Z,53.48
2019-02-24T09:39:20.836Z,53.31
2019-02-24T09:41:51.235Z,53.59
2019-02-24T09:44:21.866Z,53.69
2019-02-24T09:46:52.574Z,54.23
2019-02-24T09:49:23.034Z,54.06
2019-02-24T09:51:53.491Z,54.32
2019-02-24T09:54:23.916Z,53.64
2019-02-24T09:56:54.399Z,53.21
2019-02-24T09:59:24.846Z,52.48
2019-02-24T10:01:55.563Z,52.68
2019-02-24T10:04:25.893Z,52.62
2019-02-24T10:06:56.309Z,51.64
2019-02-24T10:09:26.819Z,51.87
2019-02-24T10:11:57.287Z,51.29
2019-02-24T10:14:28.030Z,50.98
2019-02-24T10:16:58.497Z,50.63
2019-02-24T10:19:31.146Z,50.19
2019-02-24T10:22:01.338Z,50.12
2019-02-24T10:24:31.760Z,49.75
2019-02-24T10:27:02.280Z,49.93
2019-02-24T10:29:33.666Z,49.52
2019-02-24T10:32:04.246Z,49.29
2019-02-24T10:34:34.665Z,48.96
2019-02-24T10:37:05.746Z,48.75
2019-02-24T10:39:36.116Z,48.64
2019-02-24T10:42:06.481Z,48.91
2019-02-24T10:44:36.892Z,48.73
2019-02-24T10:47:07.386Z,48.54
2019-02-24T10:49:37.891Z,48.73
2019-02-24T10:52:08.530Z,48.71
2019-02-24T10:54:39.006Z,48.29
2019-02-24T10:57:12.846Z,48.38
2019-02-24T10:59:41.934Z,48.21
2019-02-24T11:02:12.404Z,48.43
2019-02-24T11:04:42.943Z,48.05
2019-02-24T11:07:13.351Z,47.89
2019-02-24T11:09:43.937Z,47.82
2019-02-24T11:12:14.623Z,47.60
2019-02-24T11:14:45.035Z,47.63
2019-02-24T11:17:16.405Z,47.30
2019-02-24T11:19:47.066Z,47.63
2019-02-24T11:22:17.897Z,47.54
2019-02-24T11:24:48.357Z,47.21
2019-02-24T11:27:18.867Z,47.82
2019-02-24T11:29:49.496Z,47.82
2019-02-24T11:32:19.895Z,46.85
2019-02-24T11:34:50.634Z,47.28
2019-02-24T11:37:21.273Z,47.14
2019-02-24T11:39:51.695Z,46.79
2019-02-24T11:42:22.167Z,46.85
2019-02-24T11:44:52.575Z,46.65
2019-02-24T11:47:22.993Z,46.03
2019-02-24T11:49:53.466Z,45.72
2019-02-24T11:52:23.914Z,45.70
2019-02-24T11:54:54.388Z,45.83
2019-02-24T11:57:25.504Z,45.91
2019-02-24T11:59:56.055Z,45.78
2019-02-24T12:02:34.187Z,45.95
2019-02-24T12:04:58.656Z,46.08
2019-02-24T12:07:29.087Z,46.25
2019-02-24T12:09:59.704Z,46.45
2019-02-24T12:12:31.146Z,46.54
2019-02-24T12:15:01.614Z,46.58
2019-02-24T12:17:32.471Z,46.34
2019-02-24T12:20:03.200Z,46.07
2019-02-24T12:22:33.967Z,46.08
2019-02-24T12:25:05.211Z,45.69
2019-02-24T12:27:35.727Z,44.95
2019-02-24T12:30:07.621Z,44.95
2019-02-24T12:32:38.199Z,44.55
2019-02-24T12:35:08.884Z,44.06
2019-02-24T12:37:39.233Z,42.93
2019-02-24T12:40:09.796Z,41.52
2019-02-24T12:42:40.176Z,41.36
2019-02-24T12:45:10.570Z,40.31
2019-02-24T12:47:41.057Z,40.61
2019-02-24T12:50:11.581Z,41.23
2019-02-24T12:52:42.103Z,42.11
2019-02-24T12:55:12.669Z,42.28
2019-02-24T12:57:43.201Z,42.40
2019-02-24T13:00:16.778Z,42.21
2019-02-24T13:02:47.184Z,42.21
2019-02-24T13:05:17.837Z,43.51
2019-02-24T13:07:48.161Z,44.19
2019-02-24T13:10:18.590Z,44.13
2019-02-24T13:12:48.956Z,44.34
2019-02-24T13:15:19.742Z,43.80
2019-02-24T13:17:51.237Z,43.56
2019-02-24T13:20:21.867Z,43.83
2019-02-24T13:22:52.327Z,43.81
2019-02-24T13:25:22.799Z,43.85
2019-02-24T13:27:54.299Z,44.25
2019-02-24T13:30:25.335Z,44.28
2019-02-24T13:32:55.824Z,44.45
2019-02-24T13:35:26.246Z,44.20
2019-02-24T13:37:56.660Z,44.39
2019-02-24T13:40:27.129Z,44.25
2019-02-24T13:42:57.621Z,44.23
2019-02-24T13:45:28.913Z,44.29
2019-02-24T13:48:00.348Z,44.29
2019-02-24T13:50:30.972Z,44.22
2019-02-24T13:53:01.547Z,44.13
2019-02-24T13:55:32.246Z,44.10
2019-02-24T13:58:02.874Z,43.92
2019-02-24T14:00:33.521Z,44.00
2019-02-24T14:03:06.083Z,44.04
2019-02-24T14:05:36.478Z,44.19
2019-02-24T14:08:06.949Z,44.01
2019-02-24T14:10:37.607Z,44.24
2019-02-24T14:13:07.964Z,44.22
2019-02-24T14:15:38.364Z,44.14
2019-02-24T14:18:08.716Z,44.26
2019-02-24T14:20:39.244Z,44.19
2019-02-24T14:23:09.594Z,44.16
2019-02-24T14:25:39.957Z,44.09
2019-02-24T14:28:10.345Z,43.72
2019-02-24T14:30:40.808Z,44.51
2019-02-24T14:33:12.346Z,43.21
2019-02-24T14:35:42.872Z,43.52
2019-02-24T14:38:13.291Z,43.46
2019-02-24T14:40:44.096Z,43.59
2019-02-24T14:43:14.670Z,43.95
2019-02-24T14:45:49.612Z,44.57
2019-02-24T14:48:17.345Z,44.22
2019-02-24T14:50:48.028Z,44.11
2019-02-24T14:53:18.776Z,44.28
2019-02-24T14:55:49.179Z,44.38
2019-02-24T14:58:19.596Z,44.70
2019-02-24T15:00:50.051Z,44.78
2019-02-24T15:03:20.596Z,45.04
2019-02-24T15:05:51.137Z,45.29
2019-02-24T15:08:23.267Z,45.53
2019-02-24T15:10:53.736Z,45.69
2019-02-24T15:13:24.254Z,46.03
2019-02-24T15:15:54.666Z,46.10
2019-02-24T15:18:25.047Z,46.26
2019-02-24T15:20:55.503Z,46.46
2019-02-24T15:23:25.968Z,46.58
2019-02-24T15:25:56.398Z,46.58
2019-02-24T15:28:26.964Z,46.55
2019-02-24T15:30:57.562Z,46.52
2019-02-24T15:33:28.063Z,46.64
2019-02-24T15:35:58.689Z,46.65
2019-02-24T15:38:29.275Z,46.59
2019-02-24T15:40:59.669Z,46.67
2019-02-24T15:43:30.287Z,46.81
2019-02-24T15:46:00.849Z,46.94
2019-02-24T15:48:31.254Z,47.24
2019-02-24T15:51:01.846Z,47.37
2019-02-24T15:53:32.482Z,47.24
2019-02-24T15:56:03.847Z,47.42
2019-02-24T15:58:34.489Z,47.55
2019-02-24T16:01:06.596Z,47.62
2019-02-24T16:03:37.207Z,47.74
2019-02-24T16:06:07.726Z,47.84
2019-02-24T16:08:38.347Z,47.85
2019-02-24T16:11:08.808Z,48.00
2019-02-24T16:13:39.346Z,47.88
2019-02-24T16:16:09.812Z,48.15
2019-02-24T16:18:41.654Z,48.14
2019-02-24T16:21:12.181Z,48.30
2019-02-24T16:23:42.643Z,48.56
2019-02-24T16:26:13.029Z,48.67
2019-02-24T16:28:43.484Z,48.82
2019-02-24T16:31:13.912Z,48.80
2019-02-24T16:33:44.382Z,49.10
2019-02-24T16:36:15.438Z,49.11
2019-02-24T16:38:46.037Z,49.15
2019-02-24T16:41:16.431Z,49.23
2019-02-24T16:43:46.869Z,48.95
2019-02-24T16:46:17.322Z,49.49
2019-02-24T16:48:47.750Z,49.60
2019-02-24T16:51:18.230Z,49.64
2019-02-24T16:53:48.606Z,49.76
2019-02-24T16:56:19.085Z,49.92
2019-02-24T16:58:49.507Z,50.02
2019-02-24T17:01:20.163Z,50.12
2019-02-24T17:03:50.723Z,50.28
2019-02-24T17:06:21.204Z,50.36
2019-02-24T17:09:00.634Z,50.40
2019-02-24T17:11:32.444Z,50.70
2019-02-24T17:14:02.830Z,50.83
2019-02-24T17:16:33.746Z,50.64
2019-02-24T17:19:04.128Z,50.75
2019-02-24T17:21:34.501Z,50.83
2019-02-24T17:24:05.732Z,50.77
2019-02-24T17:26:36.273Z,51.03
2019-02-24T17:29:06.642Z,51.00
2019-02-24T17:31:37.082Z,51.01
2019-02-24T17:34:07.439Z,50.96
2019-02-24T17:36:37.865Z,50.83
2019-02-24T17:39:08.306Z,50.91
2019-02-24T17:41:40.361Z,51.06
2019-02-24T17:44:10.733Z,51.06
2019-02-24T17:46:41.313Z,50.74
2019-02-24T17:49:11.760Z,50.79
2019-02-24T17:51:44.693Z,50.66
2019-02-24T17:54:15.074Z,50.58
2019-02-24T17:56:45.550Z,50.62
2019-02-24T17:59:15.928Z,50.62
2019-02-24T18:01:46.444Z,50.43
2019-02-24T18:04:16.874Z,50.36
2019-02-24T18:06:48.257Z,50.37
2019-02-24T18:09:18.697Z,50.95
2019-02-24T18:11:49.093Z,50.95
2019-02-24T18:14:19.515Z,50.78
2019-02-24T18:16:49.947Z,50.95
2019-02-24T18:19:20.414Z,50.82
2019-02-24T18:21:50.789Z,50.82
2019-02-24T18:24:21.233Z,50.75
2019-02-24T18:26:51.792Z,50.62
2019-02-24T18:29:22.350Z,50.60
2019-02-24T18:31:52.858Z,50.27
2019-02-24T18:34:23.188Z,50.25
2019-02-24T18:36:53.556Z,50.27
2019-02-24T18:39:24.298Z,49.76
2019-02-24T18:41:54.713Z,49.76
2019-02-24T18:44:26.187Z,49.77
2019-02-24T18:46:56.711Z,49.84
2019-02-24T18:49:27.111Z,49.79
2019-02-24T18:51:57.468Z,50.12
2019-02-24T18:54:34.573Z,50.01
2019-02-24T18:56:59.904Z,50.16
2019-02-24T18:59:30.330Z,50.21
2019-02-24T19:02:00.959Z,50.04
2019-02-24T19:04:31.345Z,49.46
2019-02-24T19:07:01.808Z,49.37
2019-02-24T19:09:32.524Z,49.19
2019-02-24T19:12:02.863Z,48.85
2019-02-24T19:14:33.259Z,48.62
2019-02-24T19:17:03.778Z,48.63
2019-02-24T19:19:35.198Z,48.30
2019-02-24T19:22:07.241Z,47.93
2019-02-24T19:24:37.743Z,47.89
2019-02-24T19:27:08.212Z,47.95
2019-02-24T19:29:38.674Z,48.36
2019-02-24T19:32:09.084Z,48.11
2019-02-24T19:34:39.542Z,48.11
2019-02-24T19:37:09.980Z,47.57
2019-02-24T19:39:40.424Z,47.93
2019-02-24T19:42:10.846Z,47.96
2019-02-24T19:44:41.243Z,48.24
2019-02-24T19:47:11.769Z,47.95
2019-02-24T19:49:42.235Z,47.84
2019-02-24T19:52:12.698Z,47.33
2019-02-24T19:54:43.106Z,47.49
2019-02-24T19:57:13.587Z,47.61
2019-02-24T19:59:43.981Z,47.64
2019-02-24T20:02:14.450Z,47.88
2019-02-24T20:04:44.785Z,47.46
2019-02-24T20:07:15.231Z,47.42
2019-02-24T20:09:45.677Z,47.43
2019-02-24T20:12:17.138Z,47.56
2019-02-24T20:14:47.530Z,47.65
2019-02-24T20:17:18.056Z,47.71
2019-02-24T20:19:48.532Z,47.36
2019-02-24T20:22:18.963Z,47.46
2019-02-24T20:24:49.341Z,47.32
2019-02-24T20:27:20.701Z,47.00
2019-02-24T20:29:51.350Z,47.33
2019-02-24T20:32:21.840Z,47.28
2019-02-24T20:34:52.348Z,47.27
2019-02-24T20:37:22.772Z,47.02
2019-02-24T20:39:53.279Z,47.12
2019-02-24T20:42:23.696Z,46.83
2019-02-24T20:44:54.071Z,47.10
2019-02-24T20:47:24.509Z,46.46
2019-02-24T20:49:55.034Z,46.61
2019-02-24T20:52:25.432Z,46.58
2019-02-24T20:54:55.815Z,46.77
2019-02-24T20:57:26.247Z,46.75
2019-02-24T20:59:56.691Z,46.75
2019-02-24T21:02:27.119Z,46.84
2019-02-24T21:04:58.468Z,47.20
2019-02-24T21:07:28.832Z,47.38
2019-02-24T21:09:59.226Z,47.48
2019-02-24T21:12:29.623Z,47.45
2019-02-24T21:15:00.037Z,47.67
2019-02-24T21:17:30.381Z,47.61
2019-02-24T21:20:00.925Z,47.63
2019-02-24T21:22:31.425Z,47.17
2019-02-24T21:25:01.903Z,46.89
2019-02-24T21:27:32.390Z,46.58
2019-02-24T21:30:03.078Z,46.61
2019-02-24T21:32:33.596Z,46.82
2019-02-24T21:35:04.170Z,46.78
2019-02-24T21:37:35.637Z,47.56
2019-02-24T21:40:06.706Z,48.16
2019-02-24T21:42:37.163Z,48.01
2019-02-24T21:45:10.795Z,48.05
2019-02-24T21:47:41.386Z,47.88
2019-02-24T21:50:12.863Z,47.77
2019-02-24T21:52:43.594Z,46.95
2019-02-24T21:55:14.236Z,47.30
2019-02-24T21:57:44.787Z,47.76
2019-02-24T22:00:17.277Z,47.84
2019-02-24T22:02:47.761Z,47.77
2019-02-24T22:05:18.354Z,47.49
2019-02-24T22:07:48.787Z,47.64
2019-02-24T22:10:19.120Z,46.64
2019-02-24T22:12:49.493Z,47.07
2019-02-24T22:15:20.258Z,47.41
2019-02-24T22:17:50.669Z,47.22
2019-02-24T22:20:21.146Z,47.22
2019-02-24T22:22:51.498Z,47.26
2019-02-24T22:25:21.960Z,46.83
2019-02-24T22:27:52.344Z,46.99
2019-02-24T22:30:22.704Z,47.85
2019-02-24T22:32:53.347Z,47.83
2019-02-24T22:35:23.845Z,47.89
2019-02-24T22:37:54.255Z,47.71
2019-02-24T22:40:24.695Z,47.06
2019-02-24T22:42:55.126Z,46.44
2019-02-24T22:45:25.631Z,46.13
2019-02-24T22:47:56.077Z,46.14
2019-02-24T22:50:26.566Z,46.05
2019-02-24T22:52:57.045Z,46.31
2019-02-24T22:55:28.371Z,46.33
2019-02-24T22:57:58.739Z,46.22
2019-02-24T23:01:18.221Z,46.11
2019-02-24T23:03:49.523Z,46.15
2019-02-24T23:06:19.963Z,46.41
2019-02-24T23:08:50.560Z,46.48
2019-02-24T23:11:21.040Z,46.58
2019-02-24T23:13:51.362Z,46.56
2019-02-24T23:16:21.737Z,47.04
2019-02-24T23:18:52.323Z,47.33
2019-02-24T23:21:23.867Z,48.02
2019-02-24T23:23:54.343Z,47.75
2019-02-24T23:26:24.769Z,48.30
2019-02-24T23:28:55.253Z,49.77
2019-02-24T23:31:25.771Z,49.96
2019-02-24T23:33:57.157Z,49.79
2019-02-24T23:36:27.669Z,49.26
2019-02-24T23:38:58.235Z,48.62
2019-02-24T23:41:28.690Z,48.97
2019-02-24T23:43:59.102Z,50.06
2019-02-24T23:46:29.578Z,50.27
2019-02-24T23:49:00.964Z,49.54
2019-02-24T23:51:31.376Z,49.87
2019-02-24T23:54:01.751Z,48.63
2019-02-24T23:56:32.194Z,48.69
2019-02-24T23:59:02.597Z,47.77
